sensor_id;sensor_type;location;lat;lon;timestamp;temperature;humidity
34406;DHT22;20658;45.630;8.886;2024-02-26T00:00:30;6.70;99.90
34406;DHT22;20658;45.630;8.886;2024-02-26T00:03:04;6.70;99.90
34406;DHT22;20658;45.630;8.886;2024-02-26T00:05:37;6.70;99.90
34406;DHT22;20658;45.630;8.886;2024-02-26T00:08:06;6.70;99.90
34406;DHT22;20658;45.630;8.886;2024-02-26T00:10:40;6.70;99.90
34406;DHT22;20658;45.630;8.886;2024-02-26T00:13:14;6.70;99.90
34406;DHT22;20658;45.630;8.886;2024-02-26T00:15:49;6.70;99.90
34406;DHT22;20658;45.630;8.886;2024-02-26T00:18:18;6.70;99.90
34406;DHT22;20658;45.630;8.886;2024-02-26T00:20:46;6.70;99.90
34406;DHT22;20658;45.630;8.886;2024-02-26T00:23:20;6.70;99.90
34406;DHT22;20658;45.630;8.886;2024-02-26T00:25:54;6.70;99.90
34406;DHT22;20658;45.630;8.886;2024-02-26T00:28:28;6.70;99.90
34406;DHT22;20658;45.630;8.886;2024-02-26T00:31:03;6.60;99.90
34406;DHT22;20658;45.630;8.886;2024-02-26T00:33:37;6.70;99.90
34406;DHT22;20658;45.630;8.886;2024-02-26T00:36:10;6.70;99.90
34406;DHT22;20658;45.630;8.886;2024-02-26T00:38:39;6.70;99.90
34406;DHT22;20658;45.630;8.886;2024-02-26T00:41:12;6.60;99.90
34406;DHT22;20658;45.630;8.886;2024-02-26T00:43:46;6.60;99.90
34406;DHT22;20658;45.630;8.886;2024-02-26T00:46:16;6.50;99.90
34406;DHT22;20658;45.630;8.886;2024-02-26T00:48:45;6.60;99.90
34406;DHT22;20658;45.630;8.886;2024-02-26T00:51:13;6.60;99.90
34406;DHT22;20658;45.630;8.886;2024-02-26T00:53:47;6.60;99.90
34406;DHT22;20658;45.630;8.886;2024-02-26T00:56:15;6.60;99.90
34406;DHT22;20658;45.630;8.886;2024-02-26T00:58:49;6.60;99.90
34406;DHT22;20658;45.630;8.886;2024-02-26T01:01:24;6.60;99.90
34406;DHT22;20658;45.630;8.886;2024-02-26T01:03:57;6.50;99.90
34406;DHT22;20658;45.630;8.886;2024-02-26T01:06:31;6.50;99.90
34406;DHT22;20658;45.630;8.886;2024-02-26T01:08:59;6.50;99.90
34406;DHT22;20658;45.630;8.886;2024-02-26T01:11:33;6.50;99.90
34406;DHT22;20658;45.630;8.886;2024-02-26T01:14:02;6.50;99.90
34406;DHT22;20658;45.630;8.886;2024-02-26T01:16:32;6.40;99.90
34406;DHT22;20658;45.630;8.886;2024-02-26T01:19:06;6.50;99.90
34406;DHT22;20658;45.630;8.886;2024-02-26T01:21:39;6.50;99.90
34406;DHT22;20658;45.630;8.886;2024-02-26T01:24:12;6.50;99.90
34406;DHT22;20658;45.630;8.886;2024-02-26T01:26:47;6.50;99.90
34406;DHT22;20658;45.630;8.886;2024-02-26T01:29:16;6.50;99.90
34406;DHT22;20658;45.630;8.886;2024-02-26T01:31:45;6.40;99.90
34406;DHT22;20658;45.630;8.886;2024-02-26T01:34:19;6.50;99.90
34406;DHT22;20658;45.630;8.886;2024-02-26T01:36:52;6.40;99.90
34406;DHT22;20658;45.630;8.886;2024-02-26T01:39:27;6.40;99.90
34406;DHT22;20658;45.630;8.886;2024-02-26T01:41:57;6.40;99.90
34406;DHT22;20658;45.630;8.886;2024-02-26T01:44:26;6.50;99.90
34406;DHT22;20658;45.630;8.886;2024-02-26T01:47:01;6.40;99.90
34406;DHT22;20658;45.630;8.886;2024-02-26T01:49:30;6.50;99.90
34406;DHT22;20658;45.630;8.886;2024-02-26T01:52:04;6.50;99.90
34406;DHT22;20658;45.630;8.886;2024-02-26T01:54:40;6.40;99.90
34406;DHT22;20658;45.630;8.886;2024-02-26T01:57:14;6.40;99.90
34406;DHT22;20658;45.630;8.886;2024-02-26T01:59:43;6.40;99.90
34406;DHT22;20658;45.630;8.886;2024-02-26T02:02:14;6.40;99.90
34406;DHT22;20658;45.630;8.886;2024-02-26T02:04:43;6.30;99.90
34406;DHT22;20658;45.630;8.886;2024-02-26T02:07:12;6.30;99.90
34406;DHT22;20658;45.630;8.886;2024-02-26T02:09:41;6.40;99.90
34406;DHT22;20658;45.630;8.886;2024-02-26T02:12:15;6.30;99.90
34406;DHT22;20658;45.630;8.886;2024-02-26T02:14:43;6.30;99.90
34406;DHT22;20658;45.630;8.886;2024-02-26T02:17:19;6.30;99.90
34406;DHT22;20658;45.630;8.886;2024-02-26T02:19:52;6.30;99.90
34406;DHT22;20658;45.630;8.886;2024-02-26T02:22:22;6.30;99.90
34406;DHT22;20658;45.630;8.886;2024-02-26T02:24:52;6.30;99.90
34406;DHT22;20658;45.630;8.886;2024-02-26T02:27:21;6.30;99.90
34406;DHT22;20658;45.630;8.886;2024-02-26T02:29:49;6.30;99.90
34406;DHT22;20658;45.630;8.886;2024-02-26T02:32:24;6.30;99.90
34406;DHT22;20658;45.630;8.886;2024-02-26T02:34:53;6.30;99.90
34406;DHT22;20658;45.630;8.886;2024-02-26T02:37:23;6.30;99.90
34406;DHT22;20658;45.630;8.886;2024-02-26T02:39:56;6.30;99.90
34406;DHT22;20658;45.630;8.886;2024-02-26T02:42:30;6.30;99.90
34406;DHT22;20658;45.630;8.886;2024-02-26T02:44:59;6.30;99.90
34406;DHT22;20658;45.630;8.886;2024-02-26T02:47:28;6.20;99.90
34406;DHT22;20658;45.630;8.886;2024-02-26T02:50:01;6.20;99.90
34406;DHT22;20658;45.630;8.886;2024-02-26T02:52:31;6.20;99.90
34406;DHT22;20658;45.630;8.886;2024-02-26T02:55:05;6.20;99.90
34406;DHT22;20658;45.630;8.886;2024-02-26T02:57:39;6.20;99.90
34406;DHT22;20658;45.630;8.886;2024-02-26T03:00:10;6.20;99.90
34406;DHT22;20658;45.630;8.886;2024-02-26T03:02:45;6.20;99.90
34406;DHT22;20658;45.630;8.886;2024-02-26T03:05:18;6.20;99.90
34406;DHT22;20658;45.630;8.886;2024-02-26T03:07:48;6.20;99.90
34406;DHT22;20658;45.630;8.886;2024-02-26T03:10:16;6.30;99.90
34406;DHT22;20658;45.630;8.886;2024-02-26T03:12:50;6.30;99.90
34406;DHT22;20658;45.630;8.886;2024-02-26T03:15:19;6.20;99.90
34406;DHT22;20658;45.630;8.886;2024-02-26T03:17:47;6.20;99.90
34406;DHT22;20658;45.630;8.886;2024-02-26T03:20:21;6.10;99.90
34406;DHT22;20658;45.630;8.886;2024-02-26T03:22:56;6.10;99.90
34406;DHT22;20658;45.630;8.886;2024-02-26T03:25:24;6.10;99.90
34406;DHT22;20658;45.630;8.886;2024-02-26T03:27:52;6.10;99.90
34406;DHT22;20658;45.630;8.886;2024-02-26T03:30:21;6.10;99.90
34406;DHT22;20658;45.630;8.886;2024-02-26T03:32:49;6.00;99.90
34406;DHT22;20658;45.630;8.886;2024-02-26T03:35:23;6.00;99.90
34406;DHT22;20658;45.630;8.886;2024-02-26T03:37:51;6.00;99.90
34406;DHT22;20658;45.630;8.886;2024-02-26T03:40:21;6.00;99.90
34406;DHT22;20658;45.630;8.886;2024-02-26T03:42:56;6.10;99.90
34406;DHT22;20658;45.630;8.886;2024-02-26T03:45:25;6.00;99.90
34406;DHT22;20658;45.630;8.886;2024-02-26T03:47:59;6.10;99.90
34406;DHT22;20658;45.630;8.886;2024-02-26T03:50:33;6.10;99.90
34406;DHT22;20658;45.630;8.886;2024-02-26T03:53:01;6.10;99.90
34406;DHT22;20658;45.630;8.886;2024-02-26T03:55:31;6.00;99.90
34406;DHT22;20658;45.630;8.886;2024-02-26T03:58:05;6.00;99.90
34406;DHT22;20658;45.630;8.886;2024-02-26T04:00:38;6.10;99.90
34406;DHT22;20658;45.630;8.886;2024-02-26T04:03:07;6.10;99.90
34406;DHT22;20658;45.630;8.886;2024-02-26T04:05:35;6.10;99.90
34406;DHT22;20658;45.630;8.886;2024-02-26T04:08:05;6.10;99.90
34406;DHT22;20658;45.630;8.886;2024-02-26T04:10:35;6.10;99.90
34406;DHT22;20658;45.630;8.886;2024-02-26T04:13:10;6.10;99.90
34406;DHT22;20658;45.630;8.886;2024-02-26T04:15:44;6.00;99.90
34406;DHT22;20658;45.630;8.886;2024-02-26T04:18:13;6.00;99.90
34406;DHT22;20658;45.630;8.886;2024-02-26T04:20:42;6.00;99.90
34406;DHT22;20658;45.630;8.886;2024-02-26T04:23:10;6.00;99.90
34406;DHT22;20658;45.630;8.886;2024-02-26T04:25:40;6.00;99.90
34406;DHT22;20658;45.630;8.886;2024-02-26T04:28:14;6.00;99.90
34406;DHT22;20658;45.630;8.886;2024-02-26T04:30:42;5.90;99.90
34406;DHT22;20658;45.630;8.886;2024-02-26T04:33:16;6.00;99.90
34406;DHT22;20658;45.630;8.886;2024-02-26T04:35:49;6.00;99.90
34406;DHT22;20658;45.630;8.886;2024-02-26T04:38:18;6.00;99.90
34406;DHT22;20658;45.630;8.886;2024-02-26T04:40:48;5.90;99.90
34406;DHT22;20658;45.630;8.886;2024-02-26T04:43:21;5.90;99.90
34406;DHT22;20658;45.630;8.886;2024-02-26T04:45:50;6.00;99.90
34406;DHT22;20658;45.630;8.886;2024-02-26T04:48:19;5.90;99.90
34406;DHT22;20658;45.630;8.886;2024-02-26T04:50:48;5.90;99.90
34406;DHT22;20658;45.630;8.886;2024-02-26T04:53:21;5.90;99.90
34406;DHT22;20658;45.630;8.886;2024-02-26T04:55:56;5.90;99.90
34406;DHT22;20658;45.630;8.886;2024-02-26T04:58:30;5.90;99.90
34406;DHT22;20658;45.630;8.886;2024-02-26T05:00:58;5.90;99.90
34406;DHT22;20658;45.630;8.886;2024-02-26T05:03:32;5.90;99.90
34406;DHT22;20658;45.630;8.886;2024-02-26T05:06:01;5.90;99.90
34406;DHT22;20658;45.630;8.886;2024-02-26T05:08:29;5.80;99.90
34406;DHT22;20658;45.630;8.886;2024-02-26T05:11:04;5.90;99.90
34406;DHT22;20658;45.630;8.886;2024-02-26T05:13:38;5.80;99.90
34406;DHT22;20658;45.630;8.886;2024-02-26T05:16:11;5.80;99.90
34406;DHT22;20658;45.630;8.886;2024-02-26T05:18:45;5.80;99.90
34406;DHT22;20658;45.630;8.886;2024-02-26T05:21:13;5.80;99.90
34406;DHT22;20658;45.630;8.886;2024-02-26T05:23:42;5.80;99.90
34406;DHT22;20658;45.630;8.886;2024-02-26T05:26:18;5.80;99.90
34406;DHT22;20658;45.630;8.886;2024-02-26T05:28:52;5.80;99.90
34406;DHT22;20658;45.630;8.886;2024-02-26T05:31:26;5.80;99.90
34406;DHT22;20658;45.630;8.886;2024-02-26T05:34:00;5.80;99.90
34406;DHT22;20658;45.630;8.886;2024-02-26T05:36:29;5.80;99.90
34406;DHT22;20658;45.630;8.886;2024-02-26T05:39:05;5.80;99.90
34406;DHT22;20658;45.630;8.886;2024-02-26T05:41:35;5.80;99.90
34406;DHT22;20658;45.630;8.886;2024-02-26T05:44:04;5.80;99.90
34406;DHT22;20658;45.630;8.886;2024-02-26T05:46:32;5.80;99.90
34406;DHT22;20658;45.630;8.886;2024-02-26T05:49:01;5.90;99.90
34406;DHT22;20658;45.630;8.886;2024-02-26T05:51:30;5.90;99.90
34406;DHT22;20658;45.630;8.886;2024-02-26T05:53:58;5.80;99.90
34406;DHT22;20658;45.630;8.886;2024-02-26T05:56:27;5.80;99.90
34406;DHT22;20658;45.630;8.886;2024-02-26T05:58:57;5.90;99.90
34406;DHT22;20658;45.630;8.886;2024-02-26T06:01:26;5.90;99.90
34406;DHT22;20658;45.630;8.886;2024-02-26T06:03:55;5.90;99.90
34406;DHT22;20658;45.630;8.886;2024-02-26T06:06:23;5.90;99.90
34406;DHT22;20658;45.630;8.886;2024-02-26T06:08:57;5.90;99.90
34406;DHT22;20658;45.630;8.886;2024-02-26T06:11:25;5.90;99.90
34406;DHT22;20658;45.630;8.886;2024-02-26T06:14:00;5.90;99.90
34406;DHT22;20658;45.630;8.886;2024-02-26T06:16:29;5.90;99.90
34406;DHT22;20658;45.630;8.886;2024-02-26T06:18:58;5.90;99.90
34406;DHT22;20658;45.630;8.886;2024-02-26T06:21:27;5.90;99.90
34406;DHT22;20658;45.630;8.886;2024-02-26T06:23:55;6.00;99.90
34406;DHT22;20658;45.630;8.886;2024-02-26T06:26:24;6.00;99.90
34406;DHT22;20658;45.630;8.886;2024-02-26T06:29:02;6.00;99.90
34406;DHT22;20658;45.630;8.886;2024-02-26T06:31:30;5.90;99.90
34406;DHT22;20658;45.630;8.886;2024-02-26T06:33:59;6.00;99.90
34406;DHT22;20658;45.630;8.886;2024-02-26T06:36:27;6.00;99.90
34406;DHT22;20658;45.630;8.886;2024-02-26T06:38:56;6.00;99.90
34406;DHT22;20658;45.630;8.886;2024-02-26T06:41:29;6.00;99.90
34406;DHT22;20658;45.630;8.886;2024-02-26T06:44:04;6.00;99.90
34406;DHT22;20658;45.630;8.886;2024-02-26T06:46:33;6.00;99.90
34406;DHT22;20658;45.630;8.886;2024-02-26T06:49:06;6.10;99.90
34406;DHT22;20658;45.630;8.886;2024-02-26T06:51:35;6.10;99.90
34406;DHT22;20658;45.630;8.886;2024-02-26T06:54:08;6.10;99.90
34406;DHT22;20658;45.630;8.886;2024-02-26T06:56:37;6.10;99.90
34406;DHT22;20658;45.630;8.886;2024-02-26T06:59:12;6.10;99.90
34406;DHT22;20658;45.630;8.886;2024-02-26T07:01:42;6.10;99.90
34406;DHT22;20658;45.630;8.886;2024-02-26T07:04:15;6.10;99.90
34406;DHT22;20658;45.630;8.886;2024-02-26T07:06:44;6.10;99.90
34406;DHT22;20658;45.630;8.886;2024-02-26T07:09:13;6.10;99.90
34406;DHT22;20658;45.630;8.886;2024-02-26T07:11:42;6.10;99.90
34406;DHT22;20658;45.630;8.886;2024-02-26T07:14:17;6.20;99.90
34406;DHT22;20658;45.630;8.886;2024-02-26T07:16:46;6.20;99.90
34406;DHT22;20658;45.630;8.886;2024-02-26T07:19:14;6.20;99.90
34406;DHT22;20658;45.630;8.886;2024-02-26T07:21:43;6.20;99.90
34406;DHT22;20658;45.630;8.886;2024-02-26T07:24:12;6.20;99.90
34406;DHT22;20658;45.630;8.886;2024-02-26T07:26:41;6.20;99.90
34406;DHT22;20658;45.630;8.886;2024-02-26T07:29:10;6.10;99.90
34406;DHT22;20658;45.630;8.886;2024-02-26T07:31:39;6.10;99.90
34406;DHT22;20658;45.630;8.886;2024-02-26T07:34:08;6.20;99.90
34406;DHT22;20658;45.630;8.886;2024-02-26T07:36:42;6.20;99.90
34406;DHT22;20658;45.630;8.886;2024-02-26T07:39:10;6.20;99.90
34406;DHT22;20658;45.630;8.886;2024-02-26T07:41:44;6.20;99.90
34406;DHT22;20658;45.630;8.886;2024-02-26T07:44:16;6.10;99.90
34406;DHT22;20658;45.630;8.886;2024-02-26T07:46:46;6.10;99.90
34406;DHT22;20658;45.630;8.886;2024-02-26T07:49:15;6.10;99.90
34406;DHT22;20658;45.630;8.886;2024-02-26T07:51:43;6.10;99.90
34406;DHT22;20658;45.630;8.886;2024-02-26T07:54:12;6.20;99.90
34406;DHT22;20658;45.630;8.886;2024-02-26T07:56:42;6.20;99.90
34406;DHT22;20658;45.630;8.886;2024-02-26T07:59:16;6.20;99.90
34406;DHT22;20658;45.630;8.886;2024-02-26T08:01:50;6.30;99.90
34406;DHT22;20658;45.630;8.886;2024-02-26T08:04:19;6.20;99.90
34406;DHT22;20658;45.630;8.886;2024-02-26T08:06:47;6.20;99.90
34406;DHT22;20658;45.630;8.886;2024-02-26T08:09:16;6.20;99.90
34406;DHT22;20658;45.630;8.886;2024-02-26T08:11:44;6.20;99.90
34406;DHT22;20658;45.630;8.886;2024-02-26T08:14:13;6.20;99.90
34406;DHT22;20658;45.630;8.886;2024-02-26T08:16:42;6.20;99.90
34406;DHT22;20658;45.630;8.886;2024-02-26T08:19:11;6.20;99.90
34406;DHT22;20658;45.630;8.886;2024-02-26T08:21:42;6.30;99.90
34406;DHT22;20658;45.630;8.886;2024-02-26T08:24:10;6.30;99.90
34406;DHT22;20658;45.630;8.886;2024-02-26T08:26:38;6.30;99.90
34406;DHT22;20658;45.630;8.886;2024-02-26T08:29:07;6.30;99.90
34406;DHT22;20658;45.630;8.886;2024-02-26T08:31:36;6.20;99.90
34406;DHT22;20658;45.630;8.886;2024-02-26T08:34:04;6.20;99.90
34406;DHT22;20658;45.630;8.886;2024-02-26T08:36:39;6.20;99.90
34406;DHT22;20658;45.630;8.886;2024-02-26T08:39:15;6.10;99.90
34406;DHT22;20658;45.630;8.886;2024-02-26T08:41:44;6.10;99.90
34406;DHT22;20658;45.630;8.886;2024-02-26T08:44:13;6.10;99.90
34406;DHT22;20658;45.630;8.886;2024-02-26T08:46:41;6.10;99.90
34406;DHT22;20658;45.630;8.886;2024-02-26T08:49:10;6.10;99.90
34406;DHT22;20658;45.630;8.886;2024-02-26T08:51:43;6.10;99.90
34406;DHT22;20658;45.630;8.886;2024-02-26T08:54:12;6.10;99.90
34406;DHT22;20658;45.630;8.886;2024-02-26T08:56:40;6.10;99.90
34406;DHT22;20658;45.630;8.886;2024-02-26T08:59:09;6.20;99.90
34406;DHT22;20658;45.630;8.886;2024-02-26T09:01:38;6.20;99.90
34406;DHT22;20658;45.630;8.886;2024-02-26T09:04:06;6.10;99.90
34406;DHT22;20658;45.630;8.886;2024-02-26T09:06:35;6.10;99.90
34406;DHT22;20658;45.630;8.886;2024-02-26T09:09:05;6.00;99.90
34406;DHT22;20658;45.630;8.886;2024-02-26T09:11:33;6.00;99.90
34406;DHT22;20658;45.630;8.886;2024-02-26T09:14:02;6.00;99.90
34406;DHT22;20658;45.630;8.886;2024-02-26T09:16:36;5.90;99.90
34406;DHT22;20658;45.630;8.886;2024-02-26T09:19:04;6.00;99.90
34406;DHT22;20658;45.630;8.886;2024-02-26T09:21:33;6.00;99.90
34406;DHT22;20658;45.630;8.886;2024-02-26T09:24:01;6.00;99.90
34406;DHT22;20658;45.630;8.886;2024-02-26T09:26:32;5.90;99.90
34406;DHT22;20658;45.630;8.886;2024-02-26T09:29:05;5.90;99.90
34406;DHT22;20658;45.630;8.886;2024-02-26T09:31:35;5.90;99.90
34406;DHT22;20658;45.630;8.886;2024-02-26T09:34:03;5.90;99.90
34406;DHT22;20658;45.630;8.886;2024-02-26T09:36:32;5.90;99.90
34406;DHT22;20658;45.630;8.886;2024-02-26T09:39:00;6.00;99.90
34406;DHT22;20658;45.630;8.886;2024-02-26T09:41:36;6.00;99.90
34406;DHT22;20658;45.630;8.886;2024-02-26T09:44:05;5.90;99.90
34406;DHT22;20658;45.630;8.886;2024-02-26T09:46:39;5.90;99.90
34406;DHT22;20658;45.630;8.886;2024-02-26T09:49:08;6.00;99.90
34406;DHT22;20658;45.630;8.886;2024-02-26T09:51:42;6.00;99.90
34406;DHT22;20658;45.630;8.886;2024-02-26T09:54:12;6.00;99.90
34406;DHT22;20658;45.630;8.886;2024-02-26T09:56:46;5.90;99.90
34406;DHT22;20658;45.630;8.886;2024-02-26T09:59:21;6.00;99.90
34406;DHT22;20658;45.630;8.886;2024-02-26T10:01:56;6.00;99.90
34406;DHT22;20658;45.630;8.886;2024-02-26T10:04:25;6.00;99.90
34406;DHT22;20658;45.630;8.886;2024-02-26T10:06:54;6.00;99.90
34406;DHT22;20658;45.630;8.886;2024-02-26T10:09:23;6.00;99.90
34406;DHT22;20658;45.630;8.886;2024-02-26T10:11:58;6.10;99.90
34406;DHT22;20658;45.630;8.886;2024-02-26T10:14:27;6.00;99.90
34406;DHT22;20658;45.630;8.886;2024-02-26T10:16:56;6.10;99.90
34406;DHT22;20658;45.630;8.886;2024-02-26T10:19:25;6.00;99.90
34406;DHT22;20658;45.630;8.886;2024-02-26T10:22:00;6.00;99.90
34406;DHT22;20658;45.630;8.886;2024-02-26T10:24:30;6.00;99.90
34406;DHT22;20658;45.630;8.886;2024-02-26T10:27:02;6.00;99.90
34406;DHT22;20658;45.630;8.886;2024-02-26T10:29:31;6.00;99.90
34406;DHT22;20658;45.630;8.886;2024-02-26T10:32:00;6.00;99.90
34406;DHT22;20658;45.630;8.886;2024-02-26T10:34:35;6.00;99.90
34406;DHT22;20658;45.630;8.886;2024-02-26T10:37:09;6.00;99.90
34406;DHT22;20658;45.630;8.886;2024-02-26T10:39:38;6.00;99.90
34406;DHT22;20658;45.630;8.886;2024-02-26T10:42:14;6.00;99.90
34406;DHT22;20658;45.630;8.886;2024-02-26T10:44:49;5.90;99.90
34406;DHT22;20658;45.630;8.886;2024-02-26T10:47:18;5.90;99.90
34406;DHT22;20658;45.630;8.886;2024-02-26T10:49:52;5.90;99.90
34406;DHT22;20658;45.630;8.886;2024-02-26T10:52:21;5.90;99.90
34406;DHT22;20658;45.630;8.886;2024-02-26T10:54:54;5.80;99.90
34406;DHT22;20658;45.630;8.886;2024-02-26T10:57:29;5.90;99.90
34406;DHT22;20658;45.630;8.886;2024-02-26T11:00:02;5.90;99.90
34406;DHT22;20658;45.630;8.886;2024-02-26T11:02:33;5.90;99.90
34406;DHT22;20658;45.630;8.886;2024-02-26T11:05:02;5.90;99.90
34406;DHT22;20658;45.630;8.886;2024-02-26T11:07:32;6.00;99.90
34406;DHT22;20658;45.630;8.886;2024-02-26T11:10:09;5.90;99.90
34406;DHT22;20658;45.630;8.886;2024-02-26T11:12:40;6.00;99.90
34406;DHT22;20658;45.630;8.886;2024-02-26T11:15:15;5.90;99.90
34406;DHT22;20658;45.630;8.886;2024-02-26T11:17:52;5.90;99.90
34406;DHT22;20658;45.630;8.886;2024-02-26T11:20:28;5.90;99.90
34406;DHT22;20658;45.630;8.886;2024-02-26T11:23:02;5.90;99.90
34406;DHT22;20658;45.630;8.886;2024-02-26T11:25:36;5.90;99.90
34406;DHT22;20658;45.630;8.886;2024-02-26T11:28:12;5.90;99.90
34406;DHT22;20658;45.630;8.886;2024-02-26T11:30:46;5.90;99.90
34406;DHT22;20658;45.630;8.886;2024-02-26T11:33:16;5.90;99.90
34406;DHT22;20658;45.630;8.886;2024-02-26T11:35:49;5.90;99.90
34406;DHT22;20658;45.630;8.886;2024-02-26T11:38:24;5.90;99.90
34406;DHT22;20658;45.630;8.886;2024-02-26T11:40:55;5.90;99.90
34406;DHT22;20658;45.630;8.886;2024-02-26T11:43:51;6.00;99.90
34406;DHT22;20658;45.630;8.886;2024-02-26T11:46:25;5.90;99.90
34406;DHT22;20658;45.630;8.886;2024-02-26T11:49:01;5.90;99.90
34406;DHT22;20658;45.630;8.886;2024-02-26T11:51:35;5.90;99.90
34406;DHT22;20658;45.630;8.886;2024-02-26T11:54:09;5.90;99.90
34406;DHT22;20658;45.630;8.886;2024-02-26T11:56:40;6.00;99.90
34406;DHT22;20658;45.630;8.886;2024-02-26T11:59:38;6.00;99.90
34406;DHT22;20658;45.630;8.886;2024-02-26T12:02:39;5.90;99.90
34406;DHT22;20658;45.630;8.886;2024-02-26T12:05:16;5.80;99.90
34406;DHT22;20658;45.630;8.886;2024-02-26T12:07:54;5.80;99.90
34406;DHT22;20658;45.630;8.886;2024-02-26T12:10:24;5.80;99.90
34406;DHT22;20658;45.630;8.886;2024-02-26T12:12:58;5.80;99.90
34406;DHT22;20658;45.630;8.886;2024-02-26T12:15:37;5.80;99.90
34406;DHT22;20658;45.630;8.886;2024-02-26T12:18:08;5.80;99.90
34406;DHT22;20658;45.630;8.886;2024-02-26T12:20:37;5.80;99.90
34406;DHT22;20658;45.630;8.886;2024-02-26T12:23:14;5.80;99.90
34406;DHT22;20658;45.630;8.886;2024-02-26T12:25:44;5.90;99.90
34406;DHT22;20658;45.630;8.886;2024-02-26T12:28:20;6.00;99.90
34406;DHT22;20658;45.630;8.886;2024-02-26T12:30:55;6.00;99.90
34406;DHT22;20658;45.630;8.886;2024-02-26T12:33:26;5.90;99.90
34406;DHT22;20658;45.630;8.886;2024-02-26T12:35:55;5.90;99.90
34406;DHT22;20658;45.630;8.886;2024-02-26T12:38:30;5.90;99.90
34406;DHT22;20658;45.630;8.886;2024-02-26T12:40:59;5.90;99.90
34406;DHT22;20658;45.630;8.886;2024-02-26T12:43:28;6.00;99.90
34406;DHT22;20658;45.630;8.886;2024-02-26T12:46:04;6.00;99.90
34406;DHT22;20658;45.630;8.886;2024-02-26T12:48:38;6.00;99.90
34406;DHT22;20658;45.630;8.886;2024-02-26T12:51:07;6.00;99.90
34406;DHT22;20658;45.630;8.886;2024-02-26T12:53:42;5.90;99.90
34406;DHT22;20658;45.630;8.886;2024-02-26T12:56:16;6.00;99.90
34406;DHT22;20658;45.630;8.886;2024-02-26T12:58:46;5.90;99.90
34406;DHT22;20658;45.630;8.886;2024-02-26T13:01:19;5.90;99.90
34406;DHT22;20658;45.630;8.886;2024-02-26T13:03:50;5.90;99.90
34406;DHT22;20658;45.630;8.886;2024-02-26T13:06:20;5.90;99.90
34406;DHT22;20658;45.630;8.886;2024-02-26T13:08:49;5.80;99.90
34406;DHT22;20658;45.630;8.886;2024-02-26T13:11:24;5.80;99.90
34406;DHT22;20658;45.630;8.886;2024-02-26T13:14:00;5.70;99.90
34406;DHT22;20658;45.630;8.886;2024-02-26T13:16:35;5.70;99.90
34406;DHT22;20658;45.630;8.886;2024-02-26T13:19:13;5.80;99.90
34406;DHT22;20658;45.630;8.886;2024-02-26T13:21:46;5.80;99.90
34406;DHT22;20658;45.630;8.886;2024-02-26T13:24:15;5.80;99.90
34406;DHT22;20658;45.630;8.886;2024-02-26T13:26:44;5.70;99.90
34406;DHT22;20658;45.630;8.886;2024-02-26T13:29:18;5.70;99.90
34406;DHT22;20658;45.630;8.886;2024-02-26T13:31:53;5.80;99.90
34406;DHT22;20658;45.630;8.886;2024-02-26T13:34:24;5.80;99.90
34406;DHT22;20658;45.630;8.886;2024-02-26T13:36:53;5.80;99.90
34406;DHT22;20658;45.630;8.886;2024-02-26T13:39:28;5.80;99.90
34406;DHT22;20658;45.630;8.886;2024-02-26T13:41:57;5.80;99.90
34406;DHT22;20658;45.630;8.886;2024-02-26T13:44:25;5.80;99.90
34406;DHT22;20658;45.630;8.886;2024-02-26T13:46:55;5.80;99.90
34406;DHT22;20658;45.630;8.886;2024-02-26T13:49:24;5.80;99.90
34406;DHT22;20658;45.630;8.886;2024-02-26T13:51:52;5.80;99.90
34406;DHT22;20658;45.630;8.886;2024-02-26T13:54:21;5.70;99.90
34406;DHT22;20658;45.630;8.886;2024-02-26T13:56:49;5.50;99.90
34406;DHT22;20658;45.630;8.886;2024-02-26T13:59:19;5.50;99.90
34406;DHT22;20658;45.630;8.886;2024-02-26T14:01:47;5.50;99.90
34406;DHT22;20658;45.630;8.886;2024-02-26T14:04:17;5.40;99.90
34406;DHT22;20658;45.630;8.886;2024-02-26T14:06:51;5.40;99.90
34406;DHT22;20658;45.630;8.886;2024-02-26T14:09:19;5.40;99.90
34406;DHT22;20658;45.630;8.886;2024-02-26T14:11:48;5.30;99.90
34406;DHT22;20658;45.630;8.886;2024-02-26T14:14:17;5.30;99.90
34406;DHT22;20658;45.630;8.886;2024-02-26T14:16:45;5.30;99.90
34406;DHT22;20658;45.630;8.886;2024-02-26T14:19:14;5.20;99.90
34406;DHT22;20658;45.630;8.886;2024-02-26T14:21:44;5.20;99.90
34406;DHT22;20658;45.630;8.886;2024-02-26T14:24:12;5.20;99.90
34406;DHT22;20658;45.630;8.886;2024-02-26T14:26:41;5.10;99.90
34406;DHT22;20658;45.630;8.886;2024-02-26T14:29:10;5.10;99.90
34406;DHT22;20658;45.630;8.886;2024-02-26T14:31:43;5.20;99.90
34406;DHT22;20658;45.630;8.886;2024-02-26T14:34:12;5.30;99.90
34406;DHT22;20658;45.630;8.886;2024-02-26T14:36:41;5.20;99.90
34406;DHT22;20658;45.630;8.886;2024-02-26T14:39:11;5.20;99.90
34406;DHT22;20658;45.630;8.886;2024-02-26T14:41:44;5.30;99.90
34406;DHT22;20658;45.630;8.886;2024-02-26T14:44:13;5.30;99.90
34406;DHT22;20658;45.630;8.886;2024-02-26T14:46:41;5.10;99.90
34406;DHT22;20658;45.630;8.886;2024-02-26T14:49:10;5.10;99.90
34406;DHT22;20658;45.630;8.886;2024-02-26T14:51:39;4.90;99.90
34406;DHT22;20658;45.630;8.886;2024-02-26T14:54:08;4.90;99.90
34406;DHT22;20658;45.630;8.886;2024-02-26T14:56:38;4.80;99.90
34406;DHT22;20658;45.630;8.886;2024-02-26T14:59:12;4.70;99.90
34406;DHT22;20658;45.630;8.886;2024-02-26T15:01:40;4.60;99.90
34406;DHT22;20658;45.630;8.886;2024-02-26T15:04:09;4.50;99.90
34406;DHT22;20658;45.630;8.886;2024-02-26T15:06:38;4.40;99.90
34406;DHT22;20658;45.630;8.886;2024-02-26T15:09:08;4.40;99.90
34406;DHT22;20658;45.630;8.886;2024-02-26T15:11:39;4.40;99.90
34406;DHT22;20658;45.630;8.886;2024-02-26T15:14:08;4.80;99.90
34406;DHT22;20658;45.630;8.886;2024-02-26T15:16:42;4.30;99.90
34406;DHT22;20658;45.630;8.886;2024-02-26T15:19:16;4.30;99.90
34406;DHT22;20658;45.630;8.886;2024-02-26T15:21:46;4.30;99.90
34406;DHT22;20658;45.630;8.886;2024-02-26T15:24:17;4.30;99.90
34406;DHT22;20658;45.630;8.886;2024-02-26T15:26:47;4.40;99.90
34406;DHT22;20658;45.630;8.886;2024-02-26T15:29:16;4.30;99.90
34406;DHT22;20658;45.630;8.886;2024-02-26T15:31:44;4.70;99.90
34406;DHT22;20658;45.630;8.886;2024-02-26T15:34:13;4.30;99.90
34406;DHT22;20658;45.630;8.886;2024-02-26T15:36:41;4.20;99.90
34406;DHT22;20658;45.630;8.886;2024-02-26T15:39:10;4.30;99.90
34406;DHT22;20658;45.630;8.886;2024-02-26T15:41:39;4.20;99.90
34406;DHT22;20658;45.630;8.886;2024-02-26T15:44:09;4.20;99.90
34406;DHT22;20658;45.630;8.886;2024-02-26T15:46:39;4.20;99.90
34406;DHT22;20658;45.630;8.886;2024-02-26T15:49:08;4.20;99.90
34406;DHT22;20658;45.630;8.886;2024-02-26T15:51:37;4.20;99.90
34406;DHT22;20658;45.630;8.886;2024-02-26T15:54:05;4.20;99.90
34406;DHT22;20658;45.630;8.886;2024-02-26T15:56:34;4.10;99.90
34406;DHT22;20658;45.630;8.886;2024-02-26T15:59:04;4.10;99.90
34406;DHT22;20658;45.630;8.886;2024-02-26T16:01:34;4.10;99.90
34406;DHT22;20658;45.630;8.886;2024-02-26T16:04:02;4.10;99.90
34406;DHT22;20658;45.630;8.886;2024-02-26T16:06:33;4.10;99.90
34406;DHT22;20658;45.630;8.886;2024-02-26T16:09:04;4.20;99.90